createdAt,value
2018-12-25T00:00:51.345Z,89.47
2018-12-25T00:03:21.807Z,89.51
2018-12-25T00:05:52.298Z,89.51
2018-12-25T00:08:42.202Z,89.11
2018-12-25T00:11:32.140Z,88.93
2018-12-25T00:14:02.934Z,88.87
2018-12-25T00:16:35.132Z,88.69
2018-12-25T00:19:06.306Z,88.71
2018-12-25T00:21:57.260Z,88.68
2018-12-25T00:24:27.702Z,88.44
2018-12-25T00:26:58.213Z,88.25
2018-12-25T00:29:28.684Z,88.46
2018-12-25T00:31:59.452Z,88.48
2018-12-25T00:34:29.932Z,88.29
2018-12-25T00:37:19.849Z,88.20
2018-12-25T00:39:50.329Z,88.25
2018-12-25T00:42:20.777Z,88.15
2018-12-25T00:45:10.733Z,88.16
2018-12-25T00:47:41.176Z,88.27
2018-12-25T00:50:11.959Z,88.20
2018-12-25T00:53:02.303Z,88.31
2018-12-25T00:55:32.743Z,87.94
2018-12-25T00:58:03.227Z,88.06
2018-12-25T01:00:53.132Z,88.22
2018-12-25T01:03:23.800Z,87.75
2018-12-25T01:05:54.244Z,88.19
2018-12-25T01:08:26.718Z,88.02
2018-12-25T01:10:57.180Z,87.81
2018-12-25T01:13:27.617Z,87.91
2018-12-25T01:15:58.419Z,87.81
2018-12-25T01:18:28.853Z,87.56
2018-12-25T01:20:59.680Z,88.10
2018-12-25T01:23:30.655Z,88.05
2018-12-25T01:26:01.079Z,87.93
2018-12-25T01:28:31.669Z,88.16
2018-12-25T01:31:02.102Z,88.32
2018-12-25T01:33:32.547Z,88.32
2018-12-25T01:36:03.010Z,88.47
2018-12-25T01:38:33.752Z,88.16
2018-12-25T01:41:04.231Z,88.06
2018-12-25T01:43:34.984Z,87.95
2018-12-25T01:46:05.426Z,87.83
2018-12-25T01:48:35.884Z,87.78
2018-12-25T01:51:06.395Z,87.57
2018-12-25T01:53:36.873Z,88.21
2018-12-25T01:56:07.309Z,87.84
2018-12-25T01:58:38.490Z,87.84
2018-12-25T02:01:08.957Z,87.94
2018-12-25T02:03:39.430Z,87.88
2018-12-25T02:06:29.390Z,87.76
2018-12-25T02:09:19.296Z,87.85
2018-12-25T02:11:49.800Z,87.95
2018-12-25T02:14:20.232Z,88.27
2018-12-25T02:17:09.757Z,87.99
2018-12-25T02:19:40.628Z,87.98
2018-12-25T02:22:11.432Z,87.64
2018-12-25T02:24:41.902Z,87.55
2018-12-25T02:27:12.348Z,87.99
2018-12-25T02:32:58.455Z,87.47
2018-12-25T02:35:29.294Z,87.37
2018-12-25T02:37:59.727Z,87.24
2018-12-25T02:40:30.172Z,87.16
2018-12-25T02:43:00.616Z,87.03
2018-12-25T02:45:31.420Z,86.91
2018-12-25T02:48:01.914Z,86.87
2018-12-25T02:50:32.343Z,86.90
2018-12-25T02:53:22.309Z,86.89
2018-12-25T02:55:54.465Z,87.35
2018-12-25T02:58:44.413Z,87.46
2018-12-25T03:01:14.850Z,87.01
2018-12-25T03:03:45.301Z,86.82
2018-12-25T03:06:16.287Z,87.06
2018-12-25T03:08:46.723Z,87.17
2018-12-25T03:11:36.680Z,87.28
2018-12-25T03:14:07.133Z,87.32
2018-12-25T03:16:37.557Z,86.67
2018-12-25T03:19:08.021Z,86.67
2018-12-25T03:21:38.459Z,86.67
2018-12-25T03:24:28.397Z,86.50
2018-12-25T03:27:18.684Z,86.55
2018-12-25T03:29:49.166Z,86.44
2018-12-25T03:32:19.996Z,86.53
2018-12-25T03:34:50.418Z,86.45
2018-12-25T03:37:20.883Z,86.43
2018-12-25T03:40:11.099Z,86.35
2018-12-25T03:43:19.956Z,86.54
2018-12-25T03:45:50.386Z,86.21
2018-12-25T03:48:20.868Z,86.11
2018-12-25T03:50:51.300Z,85.98
2018-12-25T03:53:21.738Z,86.05
2018-12-25T03:55:52.191Z,86.46
2018-12-25T03:58:42.093Z,86.24
2018-12-25T04:01:12.566Z,86.31
2018-12-25T04:03:43.400Z,85.98
2018-12-25T04:06:13.828Z,86.10
2018-12-25T04:08:44.665Z,85.90
2018-12-25T04:11:15.098Z,86.04
2018-12-25T04:13:46.069Z,86.07
2018-12-25T04:16:16.551Z,85.95
2018-12-25T04:18:46.983Z,86.02
2018-12-25T04:21:17.455Z,85.98
2018-12-25T04:23:47.874Z,85.74
2018-12-25T04:26:18.697Z,85.72
2018-12-25T04:28:49.127Z,85.62
2018-12-25T04:31:21.289Z,85.77
2018-12-25T04:33:52.161Z,85.65
2018-12-25T04:36:24.304Z,85.46
2018-12-25T04:38:55.151Z,85.71
2018-12-25T04:41:27.285Z,85.23
2018-12-25T04:43:57.883Z,85.37
2018-12-25T04:46:28.353Z,85.46
2018-12-25T04:48:58.799Z,85.64
2018-12-25T04:51:29.831Z,85.80
2018-12-25T04:54:00.262Z,85.35
2018-12-25T04:56:30.693Z,85.36
2018-12-25T04:59:20.621Z,85.24
2018-12-25T05:01:51.053Z,85.30
2018-12-25T05:04:21.559Z,85.52
2018-12-25T05:06:52.384Z,85.46
2018-12-25T05:09:22.832Z,85.38
2018-12-25T05:12:13.097Z,85.47
2018-12-25T05:14:43.538Z,85.68
2018-12-25T05:17:14.013Z,85.67
2018-12-25T05:20:03.956Z,85.59
2018-12-25T05:22:53.896Z,85.92
2018-12-25T05:25:24.641Z,85.92
2018-12-25T05:27:55.072Z,86.21
2018-12-25T05:30:25.536Z,86.53
2018-12-25T05:32:55.969Z,86.14
2018-12-25T05:35:26.769Z,85.85
2018-12-25T05:37:57.205Z,86.34
2018-12-25T05:40:27.642Z,86.65
2018-12-25T05:42:58.109Z,86.03
2018-12-25T05:45:48.014Z,85.93
2018-12-25T05:48:20.591Z,86.03
2018-12-25T05:50:51.032Z,86.16
2018-12-25T05:53:21.460Z,86.09
2018-12-25T05:55:51.920Z,85.94
2018-12-25T05:58:22.350Z,86.21
2018-12-25T06:00:52.830Z,86.12
2018-12-25T06:03:23.291Z,86.30
2018-12-25T06:05:55.439Z,86.29
2018-12-25T06:08:27.620Z,86.31
2018-12-25T06:10:58.070Z,86.21
2018-12-25T06:13:28.901Z,86.24
2018-12-25T06:15:59.497Z,86.45
2018-12-25T06:18:30.271Z,86.37
2018-12-25T06:21:00.732Z,86.28
2018-12-25T06:23:31.168Z,86.48
2018-12-25T06:26:01.645Z,86.49
2018-12-25T06:28:32.078Z,86.46
2018-12-25T06:31:02.926Z,86.72
2018-12-25T06:33:33.381Z,86.85
2018-12-25T06:36:04.196Z,86.93
2018-12-25T06:38:34.674Z,86.75
2018-12-25T06:41:05.105Z,86.54
2018-12-25T06:43:35.541Z,86.55
2018-12-25T06:46:06.002Z,87.24
2018-12-25T06:48:36.439Z,87.23
2018-12-25T06:51:06.919Z,87.04
2018-12-25T06:53:37.349Z,87.09
2018-12-25T06:56:08.152Z,87.37
2018-12-25T06:58:38.617Z,87.22
2018-12-25T07:01:09.048Z,87.28
2018-12-25T07:03:41.266Z,87.25
2018-12-25T07:06:13.496Z,87.13
2018-12-25T07:12:00.173Z,87.05
2018-12-25T07:14:31.045Z,87.00
2018-12-25T07:17:01.842Z,86.66
2018-12-25T07:19:52.120Z,86.82
2018-12-25T07:22:22.560Z,86.66
2018-12-25T07:24:52.996Z,86.93
2018-12-25T07:27:23.474Z,87.03
2018-12-25T07:29:54.063Z,87.43
2018-12-25T07:32:24.881Z,87.49
2018-12-25T07:34:55.311Z,87.29
2018-12-25T07:37:25.745Z,87.04
2018-12-25T07:39:56.205Z,87.59
2018-12-25T07:42:26.636Z,87.28
2018-12-25T07:44:57.115Z,87.01
2018-12-25T07:47:27.565Z,87.06
2018-12-25T07:49:57.991Z,87.24
2018-12-25T07:52:28.455Z,87.08
2018-12-25T07:54:58.885Z,87.44
2018-12-25T07:57:29.365Z,87.33
2018-12-25T07:59:59.803Z,87.26
2018-12-25T08:02:30.232Z,87.26
2018-12-25T08:05:01.108Z,87.27
2018-12-25T08:07:31.694Z,87.48
2018-12-25T08:10:02.182Z,87.59
2018-12-25T08:12:34.327Z,87.33
2018-12-25T08:15:05.158Z,87.29
2018-12-25T08:17:35.684Z,87.16
2018-12-25T08:20:06.231Z,87.25
2018-12-25T08:22:36.702Z,87.31
2018-12-25T08:25:07.135Z,87.04
2018-12-25T08:27:37.568Z,87.21
2018-12-25T08:30:08.024Z,87.13
2018-12-25T08:32:38.453Z,87.04
2018-12-25T08:35:10.652Z,87.14
2018-12-25T08:37:41.092Z,86.80
2018-12-25T08:40:11.534Z,87.03
2018-12-25T08:42:41.994Z,86.30
2018-12-25T08:45:31.904Z,86.80
2018-12-25T08:48:04.096Z,86.64
2018-12-25T08:50:53.815Z,86.09
2018-12-25T08:53:24.301Z,86.48
2018-12-25T08:55:55.041Z,86.43
2018-12-25T08:58:25.479Z,86.06
2018-12-25T09:00:55.944Z,86.23
2018-12-25T09:03:26.709Z,85.66
2018-12-25T09:05:57.188Z,85.77
2018-12-25T09:08:34.747Z,86.01
2018-12-25T09:11:20.994Z,86.23
2018-12-25T09:13:51.414Z,86.59
2018-12-25T09:16:21.845Z,86.83
2018-12-25T09:18:52.305Z,87.19
2018-12-25T09:21:46.364Z,87.04
2018-12-25T09:24:34.245Z,87.49
2018-12-25T09:27:05.045Z,87.67
2018-12-25T09:29:35.482Z,87.80
2018-12-25T09:32:05.947Z,87.41
2018-12-25T09:34:36.389Z,87.51
2018-12-25T09:37:06.866Z,87.46
2018-12-25T09:39:37.306Z,86.90
2018-12-25T09:42:08.447Z,86.91
2018-12-25T09:44:38.908Z,87.30
2018-12-25T09:47:09.347Z,86.93
2018-12-25T09:49:40.144Z,86.87
2018-12-25T09:52:10.573Z,86.67
2018-12-25T09:54:41.160Z,86.38
2018-12-25T09:57:11.619Z,86.49
2018-12-25T09:59:42.408Z,86.03
2018-12-25T10:02:12.889Z,86.56
2018-12-25T10:04:43.343Z,86.08
2018-12-25T10:07:13.779Z,86.20
2018-12-25T10:09:44.238Z,85.95
2018-12-25T10:12:14.680Z,85.90
2018-12-25T10:14:45.154Z,85.69
2018-12-25T10:17:34.469Z,85.36
2018-12-25T10:20:06.670Z,85.40
2018-12-25T10:22:56.574Z,85.32
2018-12-25T10:25:27.033Z,85.44
2018-12-25T10:27:57.474Z,86.00
2018-12-25T10:30:28.249Z,85.57
2018-12-25T10:32:58.712Z,85.22
2018-12-25T10:35:30.861Z,85.69
2018-12-25T10:38:01.293Z,84.64
2018-12-25T10:40:31.751Z,84.74
2018-12-25T10:43:02.185Z,84.81
2018-12-25T10:45:52.532Z,84.58
2018-12-25T10:48:23.360Z,84.76
2018-12-25T10:50:53.790Z,84.55
2018-12-25T10:53:24.658Z,83.88
2018-12-25T10:55:55.092Z,84.14
2018-12-25T10:58:45.059Z,84.41
2018-12-25T11:01:41.613Z,84.71
2018-12-25T11:04:12.117Z,84.50
2018-12-25T11:06:42.634Z,84.86
2018-12-25T11:09:14.014Z,84.98
2018-12-25T11:12:05.048Z,85.01
2018-12-25T11:14:35.477Z,84.84
2018-12-25T11:17:05.949Z,84.31
2018-12-25T11:19:36.383Z,84.78
2018-12-25T11:22:06.809Z,84.90
2018-12-25T11:24:37.273Z,84.35
2018-12-25T11:27:07.714Z,84.34
2018-12-25T11:29:38.185Z,84.19
2018-12-25T11:32:08.969Z,84.60
2018-12-25T11:34:39.400Z,84.76
2018-12-25T11:37:09.858Z,83.95
2018-12-25T11:39:40.287Z,83.93
2018-12-25T11:42:30.915Z,83.79
2018-12-25T11:45:01.350Z,84.55
2018-12-25T11:47:51.666Z,84.11
2018-12-25T11:50:22.110Z,83.88
2018-12-25T11:52:52.549Z,83.69
2018-12-25T11:55:23.009Z,83.28
2018-12-25T12:01:03.145Z,83.38
2018-12-25T12:03:36.025Z,83.00
2018-12-25T12:06:06.462Z,82.50
2018-12-25T12:08:37.249Z,82.21
2018-12-25T12:11:07.686Z,82.38
2018-12-25T12:13:38.496Z,81.92
2018-12-25T12:16:08.929Z,81.61
2018-12-25T12:18:39.359Z,81.81
2018-12-25T12:21:10.225Z,81.53
2018-12-25T12:23:40.663Z,81.17
2018-12-25T12:26:30.588Z,81.82
2018-12-25T12:29:01.056Z,81.01
2018-12-25T12:31:31.897Z,80.98
2018-12-25T12:34:02.383Z,80.80
2018-12-25T12:36:32.822Z,80.87
2018-12-25T12:42:19.606Z,80.91
2018-12-25T12:44:50.045Z,80.28
2018-12-25T12:47:20.544Z,80.10
2018-12-25T12:49:50.962Z,79.74
2018-12-25T12:52:23.158Z,79.59
2018-12-25T12:54:53.590Z,80.35
2018-12-25T12:57:24.402Z,79.80
2018-12-25T12:59:55.232Z,80.10
2018-12-25T13:02:25.677Z,79.46
2018-12-25T13:04:56.188Z,79.67
2018-12-25T13:07:26.989Z,79.34
2018-12-25T13:09:57.420Z,79.45
2018-12-25T13:12:27.884Z,78.88
2018-12-25T13:14:58.309Z,79.57
2018-12-25T13:17:28.794Z,80.00
2018-12-25T13:19:59.226Z,79.83
2018-12-25T13:22:29.765Z,78.57
2018-12-25T13:25:00.526Z,78.45
2018-12-25T13:27:30.953Z,77.01
2018-12-25T13:30:01.522Z,77.11
2018-12-25T13:32:32.312Z,77.21
2018-12-25T13:35:02.740Z,78.06
2018-12-25T13:37:33.596Z,76.49
2018-12-25T13:40:04.142Z,78.23
2018-12-25T13:42:34.619Z,77.44
2018-12-25T13:45:05.131Z,77.52
2018-12-25T13:47:35.569Z,77.79
2018-12-25T13:50:25.589Z,77.49
2018-12-25T13:53:02.761Z,77.41
2018-12-25T13:55:47.676Z,77.12
2018-12-25T13:58:18.105Z,76.52
2018-12-25T14:00:48.941Z,77.39
2018-12-25T14:03:19.849Z,77.46
2018-12-25T14:05:52.025Z,77.01
2018-12-25T14:08:24.223Z,76.53
2018-12-25T14:10:54.671Z,76.60
2018-12-25T14:13:25.104Z,77.41
2018-12-25T14:15:55.573Z,76.98
2018-12-25T14:18:26.452Z,76.79
2018-12-25T14:20:59.030Z,77.26
2018-12-25T14:23:29.469Z,77.18
2018-12-25T14:25:59.909Z,77.56
2018-12-25T14:28:30.371Z,77.52
2018-12-25T14:31:00.815Z,77.37
2018-12-25T14:33:51.136Z,77.72
2018-12-25T14:36:21.573Z,77.16
2018-12-25T14:38:52.007Z,77.24
2018-12-25T14:41:22.464Z,76.92
2018-12-25T14:43:52.895Z,77.16
2018-12-25T14:46:23.378Z,77.50
2018-12-25T14:48:53.815Z,77.01
2018-12-25T14:51:24.249Z,77.37
2018-12-25T14:53:54.705Z,77.69
2018-12-25T14:56:25.136Z,77.73
2018-12-25T14:58:55.595Z,78.04
2018-12-25T15:01:26.037Z,78.35
2018-12-25T15:03:56.520Z,77.97
2018-12-25T15:06:26.991Z,78.52
2018-12-25T15:08:57.432Z,78.05
2018-12-25T15:11:47.359Z,78.11
2018-12-25T15:14:18.165Z,78.00
2018-12-25T15:16:48.640Z,78.66
2018-12-25T15:19:20.800Z,78.21
2018-12-25T15:21:51.230Z,78.31
2018-12-25T15:24:21.684Z,78.98
2018-12-25T15:26:52.112Z,78.67
2018-12-25T15:29:23.571Z,79.33
2018-12-25T15:32:14.564Z,79.35
2018-12-25T15:34:47.615Z,78.69
2018-12-25T15:37:18.053Z,78.44
2018-12-25T15:39:48.822Z,78.68
2018-12-25T15:42:19.283Z,78.68
2018-12-25T15:44:49.713Z,78.49
2018-12-25T15:47:20.199Z,78.60
2018-12-25T15:49:50.630Z,79.12
2018-12-25T15:52:21.069Z,78.43
2018-12-25T15:54:52.234Z,78.00
2018-12-25T15:57:22.677Z,78.79
2018-12-25T15:59:53.148Z,78.38
2018-12-25T16:02:43.371Z,77.78
2018-12-25T16:05:14.148Z,77.81
2018-12-25T16:07:44.619Z,78.58
2018-12-25T16:10:34.552Z,78.83
2018-12-25T16:13:04.992Z,78.37
2018-12-25T16:15:35.473Z,78.10
2018-12-25T16:18:25.375Z,78.17
2018-12-25T16:21:15.330Z,78.14
2018-12-25T16:23:45.973Z,78.14
2018-12-25T16:26:37.421Z,78.30
2018-12-25T16:29:07.854Z,79.00
2018-12-25T16:31:38.293Z,79.03
2018-12-25T16:34:09.086Z,77.62
2018-12-25T16:39:29.151Z,78.07
2018-12-25T16:42:01.650Z,78.29
2018-12-25T16:44:51.158Z,78.49
2018-12-25T16:47:21.593Z,78.11
2018-12-25T16:49:52.086Z,79.26
2018-12-25T16:52:22.961Z,78.77
2018-12-25T16:54:53.392Z,79.54
2018-12-25T16:57:23.868Z,79.69
2018-12-25T16:59:54.305Z,79.14
2018-12-25T17:02:24.737Z,79.50
2018-12-25T17:04:55.194Z,79.48
2018-12-25T17:07:27.760Z,79.52
2018-12-25T17:09:58.249Z,79.68
2018-12-25T17:12:28.793Z,79.82
2018-12-25T17:14:59.194Z,79.38
2018-12-25T17:17:29.653Z,79.69
2018-12-25T17:20:00.151Z,80.04
2018-12-25T17:22:30.657Z,80.68
2018-12-25T17:25:01.088Z,80.94
2018-12-25T17:27:31.521Z,81.13
2018-12-25T17:30:01.985Z,81.10
2018-12-25T17:32:32.415Z,80.87
2018-12-25T17:35:04.717Z,80.98
2018-12-25T17:37:35.562Z,81.48
2018-12-25T17:40:06.118Z,81.74
2018-12-25T17:42:36.584Z,82.18
2018-12-25T17:45:07.300Z,82.40
2018-12-25T17:47:38.091Z,82.49
2018-12-25T17:50:08.531Z,82.59
2018-12-25T17:52:40.681Z,82.54
2018-12-25T17:55:11.598Z,82.96
2018-12-25T17:57:42.100Z,83.13
2018-12-25T18:00:12.980Z,83.44
2018-12-25T18:02:45.141Z,83.04
2018-12-25T18:05:15.947Z,83.04
2018-12-25T18:07:46.750Z,83.12
2018-12-25T18:10:17.516Z,83.12
2018-12-25T18:12:48.009Z,83.07
2018-12-25T18:15:18.448Z,83.10
2018-12-25T18:17:48.891Z,83.39
2018-12-25T18:20:19.743Z,83.12
2018-12-25T18:23:09.217Z,83.33
2018-12-25T18:25:39.704Z,83.21
2018-12-25T18:28:10.449Z,83.12
2018-12-25T18:30:40.884Z,82.91
2018-12-25T18:33:12.027Z,82.81
2018-12-25T18:35:44.508Z,82.82
2018-12-25T18:38:34.463Z,82.51
2018-12-25T18:41:24.371Z,82.87
2018-12-25T18:43:54.858Z,82.64
2018-12-25T18:46:25.296Z,82.65
2018-12-25T18:48:55.736Z,82.36
2018-12-25T18:51:26.198Z,81.69
2018-12-25T18:53:56.641Z,81.73
2018-12-25T18:56:46.945Z,81.47
2018-12-25T18:59:17.382Z,81.69
2018-12-25T19:01:47.864Z,81.23
2018-12-25T19:04:18.457Z,80.78
2018-12-25T19:06:48.934Z,80.57
2018-12-25T19:09:19.792Z,80.59
2018-12-25T19:11:50.225Z,80.49
2018-12-25T19:14:20.704Z,80.92
2018-12-25T19:16:51.714Z,80.13
2018-12-25T19:19:22.166Z,80.54
2018-12-25T19:21:52.633Z,81.04
2018-12-25T19:24:25.196Z,80.52
2018-12-25T19:26:55.676Z,80.25
2018-12-25T19:29:26.112Z,80.02
2018-12-25T19:31:58.430Z,79.61
2018-12-25T19:34:29.279Z,80.21
2018-12-25T19:37:00.104Z,79.79
2018-12-25T19:39:30.581Z,80.39
2018-12-25T19:42:01.025Z,81.21
2018-12-25T19:44:33.183Z,81.33
2018-12-25T19:47:03.654Z,81.64
2018-12-25T19:49:53.055Z,81.78
2018-12-25T19:52:43.019Z,81.60
2018-12-25T19:55:32.930Z,81.70
2018-12-25T19:58:03.428Z,81.75
2018-12-25T20:00:53.336Z,81.96
2018-12-25T20:03:29.587Z,82.32
2018-12-25T20:06:38.106Z,82.53
2018-12-25T20:09:46.638Z,82.24
2018-12-25T20:12:55.063Z,82.64
2018-12-25T20:16:03.523Z,82.65
2018-12-25T20:19:11.956Z,82.40
2018-12-25T20:22:20.721Z,82.41
2018-12-25T20:29:09.246Z,82.43
2018-12-25T20:32:18.026Z,82.63
2018-12-25T20:35:26.499Z,82.61
2018-12-25T20:38:35.228Z,82.42
2018-12-25T20:41:43.688Z,82.96
2018-12-25T20:44:52.111Z,83.12
2018-12-25T20:48:19.644Z,82.83
2018-12-25T20:51:28.038Z,82.67
2018-12-25T20:54:36.568Z,82.65
2018-12-25T21:01:33.257Z,82.96
2018-12-25T21:04:41.853Z,83.01
2018-12-25T21:07:50.640Z,83.08
2018-12-25T21:10:59.368Z,83.36
2018-12-25T21:14:07.935Z,83.75
2018-12-25T21:17:16.363Z,83.76
2018-12-25T21:20:24.840Z,83.96
2018-12-25T21:23:33.266Z,83.72
2018-12-25T21:26:41.743Z,83.76
2018-12-25T21:35:40.923Z,84.19
2018-12-25T21:38:11.370Z,84.34
2018-12-25T21:40:41.826Z,84.37
2018-12-25T21:43:12.524Z,84.05
2018-12-25T21:45:42.971Z,84.30
2018-12-25T21:48:13.421Z,84.72
2018-12-25T21:50:43.903Z,84.37
2018-12-25T21:53:14.351Z,84.14
2018-12-25T21:55:45.218Z,84.50
2018-12-25T21:58:15.763Z,84.47
2018-12-25T22:01:25.544Z,84.25
2018-12-25T22:07:25.278Z,84.09
2018-12-25T22:09:55.723Z,84.04
2018-12-25T22:12:26.218Z,83.79
2018-12-25T22:14:56.980Z,84.18
2018-12-25T22:17:27.428Z,83.75
2018-12-25T22:19:58.309Z,83.69
2018-12-25T22:22:28.755Z,83.87
2018-12-25T22:24:59.255Z,83.46
2018-12-25T22:27:30.054Z,83.42
2018-12-25T22:30:02.664Z,83.82
2018-12-25T22:32:33.144Z,83.78
2018-12-25T22:35:03.592Z,83.44
2018-12-25T22:37:34.083Z,84.11
2018-12-25T22:40:05.064Z,83.74
2018-12-25T22:42:35.504Z,83.75
2018-12-25T22:45:06.508Z,83.42
2018-12-25T22:47:37.302Z,83.42
2018-12-25T22:50:08.217Z,83.94
2018-12-25T22:52:38.667Z,83.39
2018-12-25T22:55:35.721Z,83.27
2018-12-25T22:58:20.359Z,83.38
2018-12-25T23:00:52.641Z,83.22
2018-12-25T23:03:23.088Z,83.45
2018-12-25T23:05:53.877Z,83.13
2018-12-25T23:08:24.350Z,83.20
2018-12-25T23:10:54.789Z,83.66
2018-12-25T23:13:25.293Z,83.68
2018-12-25T23:15:55.734Z,83.76
2018-12-25T23:18:26.341Z,83.36
2018-12-25T23:20:56.807Z,83.14
2018-12-25T23:23:27.640Z,82.93
2018-12-25T23:25:58.134Z,83.05
2018-12-25T23:28:30.303Z,82.87
2018-12-25T23:31:00.761Z,83.06
2018-12-25T23:33:31.218Z,82.71
2018-12-25T23:36:01.655Z,82.96
2018-12-25T23:38:32.530Z,83.10
2018-12-25T23:41:03.246Z,82.79
2018-12-25T23:43:33.697Z,82.77
2018-12-25T23:46:23.632Z,82.43
2018-12-25T23:49:13.847Z,82.45
2018-12-25T23:51:44.347Z,82.65
2018-12-25T23:54:14.787Z,82.45
2018-12-25T23:56:45.245Z,82.05
2018-12-25T23:59:15.778Z,82.18
